createdAt,value
2019-01-19T00:03:44.987Z,65.60
2019-01-19T00:08:00.968Z,70.30
2019-01-19T00:12:20.090Z,69.80
2019-01-19T00:16:43.080Z,70.70
2019-01-19T00:21:07.621Z,66.10
2019-01-19T00:25:55.240Z,67.40
2019-01-19T00:30:08.036Z,72.50
2019-01-19T00:34:42.868Z,68.40
2019-01-19T00:39:07.099Z,71.20
2019-01-19T00:43:13.905Z,72.10
2019-01-19T00:47:43.606Z,73.10
2019-01-19T00:52:12.974Z,71.20
2019-01-19T00:56:50.180Z,73.50
2019-01-19T01:01:00.464Z,74.10
2019-01-19T01:05:11.354Z,75.70
2019-01-19T01:09:42.205Z,76.20
2019-01-19T01:14:09.997Z,73.80
2019-01-19T01:18:48.194Z,71.20
2019-01-19T01:23:14.773Z,71.90
2019-01-19T01:27:25.116Z,67.30
2019-01-19T01:31:38.158Z,73.00
2019-01-19T01:36:12.241Z,73.40
2019-01-19T01:40:37.349Z,70.60
2019-01-19T01:45:02.264Z,72.30
2019-01-19T01:49:12.544Z,74.20
2019-01-19T01:53:37.643Z,70.50
2019-01-19T01:57:48.026Z,74.70
2019-01-19T02:02:13.244Z,75.10
2019-01-19T02:06:37.912Z,74.40
2019-01-19T02:11:25.430Z,76.20
2019-01-19T02:15:47.805Z,74.40
2019-01-19T02:20:21.665Z,78.30
2019-01-19T02:24:52.182Z,71.60
2019-01-19T02:29:36.695Z,69.70
2019-01-19T02:34:01.663Z,74.70
2019-01-19T02:38:32.836Z,72.80
2019-01-19T02:43:02.351Z,72.00
2019-01-19T02:47:27.000Z,77.40
2019-01-19T02:51:48.816Z,74.70
2019-01-19T02:56:07.975Z,75.50
2019-01-19T03:00:46.921Z,79.00
2019-01-19T03:05:02.907Z,74.70
2019-01-19T03:09:35.357Z,71.50
2019-01-19T03:13:54.146Z,70.50
2019-01-19T03:18:28.451Z,80.20
2019-01-19T03:22:41.557Z,79.70
2019-01-19T03:27:14.136Z,74.10
2019-01-19T03:31:40.723Z,79.50
2019-01-19T03:36:04.501Z,78.40
2019-01-19T03:40:38.119Z,71.00
2019-01-19T03:45:23.943Z,73.00
2019-01-19T03:49:39.628Z,74.20
2019-01-19T03:54:13.346Z,72.30
2019-01-19T03:58:28.561Z,78.70
2019-01-19T04:03:02.641Z,76.30
2019-01-19T04:07:24.539Z,77.40
2019-01-19T04:12:11.969Z,70.70
2019-01-19T04:16:42.926Z,77.70
2019-01-19T04:21:19.281Z,75.00
2019-01-19T04:25:29.911Z,78.70
2019-01-19T04:29:35.578Z,74.50
2019-01-19T04:33:41.341Z,78.30
2019-01-19T04:37:47.013Z,78.20
2019-01-19T04:41:52.699Z,79.50
2019-01-19T04:45:58.415Z,75.60
2019-01-19T04:50:04.855Z,77.30
2019-01-19T04:54:10.611Z,75.50
2019-01-19T04:58:16.296Z,75.70
2019-01-19T05:02:22.012Z,78.40
2019-01-19T05:06:30.576Z,74.30
2019-01-19T05:10:35.648Z,79.60
2019-01-19T05:14:41.395Z,79.60
2019-01-19T05:18:47.091Z,80.00
2019-01-19T05:22:52.790Z,71.10
2019-01-19T05:26:58.457Z,79.30
2019-01-19T05:31:04.378Z,77.70
2019-01-19T05:35:10.219Z,76.00
2019-01-19T05:39:15.907Z,75.40
2019-01-19T05:43:21.613Z,78.20
2019-01-19T05:47:27.271Z,80.00
2019-01-19T05:51:32.951Z,73.00
2019-01-19T05:55:38.750Z,75.70
2019-01-19T05:59:44.428Z,77.80
2019-01-19T06:03:50.091Z,81.50
2019-01-19T06:07:55.812Z,80.10
2019-01-19T06:12:03.218Z,78.30
2019-01-19T06:16:08.906Z,83.60
2019-01-19T06:20:17.202Z,79.40
2019-01-19T06:24:22.878Z,76.20
2019-01-19T06:28:28.562Z,79.40
2019-01-19T06:32:34.255Z,80.80
2019-01-19T06:36:39.987Z,78.10
2019-01-19T06:40:45.702Z,76.30
2019-01-19T06:44:51.370Z,76.80
2019-01-19T06:48:57.056Z,77.30
2019-01-19T06:53:02.744Z,79.90
2019-01-19T06:57:08.507Z,74.90
2019-01-19T07:01:14.172Z,72.80
2019-01-19T07:05:19.999Z,82.40
2019-01-19T07:09:25.687Z,82.30
2019-01-19T07:13:31.365Z,76.90
2019-01-19T07:17:37.031Z,74.30
2019-01-19T07:21:42.794Z,77.80
2019-01-19T07:25:48.531Z,74.60
2019-01-19T07:29:54.211Z,79.50
2019-01-19T07:33:59.902Z,77.80
2019-01-19T07:38:05.569Z,72.50
2019-01-19T07:42:11.255Z,77.50
2019-01-19T07:46:17.378Z,74.80
2019-01-19T07:50:23.065Z,76.40
2019-01-19T07:54:28.737Z,73.60
2019-01-19T07:58:34.400Z,71.60
2019-01-19T08:02:40.235Z,65.00
2019-01-19T08:06:45.973Z,65.90
2019-01-19T08:10:51.740Z,63.10
2019-01-19T08:14:57.408Z,67.90
2019-01-19T08:19:03.147Z,70.70
2019-01-19T08:23:08.846Z,67.00
2019-01-19T08:27:14.548Z,61.10
2019-01-19T08:31:20.239Z,65.80
2019-01-19T08:35:26.012Z,63.80
2019-01-19T08:39:31.766Z,71.20
2019-01-19T08:43:39.155Z,62.30
2019-01-19T08:47:44.853Z,71.30
2019-01-19T08:51:50.556Z,64.00
2019-01-19T08:55:56.293Z,63.00
2019-01-19T09:00:01.949Z,56.80
2019-01-19T09:04:07.700Z,61.20
2019-01-19T09:08:13.390Z,57.40
2019-01-19T09:12:19.211Z,45.40
2019-01-19T09:16:24.948Z,44.20
2019-01-19T09:20:30.851Z,50.10
2019-01-19T09:24:36.537Z,52.60
2019-01-19T09:28:42.239Z,51.90
2019-01-19T09:32:48.197Z,54.10
2019-01-19T09:36:53.930Z,52.90
2019-01-19T09:40:59.736Z,55.20
2019-01-19T09:45:10.770Z,57.50
2019-01-19T09:49:16.655Z,54.10
2019-01-19T09:53:22.354Z,54.30
2019-01-19T09:57:28.088Z,53.70
2019-01-19T10:10:21.057Z,51.50
2019-01-19T10:14:26.777Z,50.00
2019-01-19T10:18:32.702Z,49.00
2019-01-19T10:22:39.357Z,49.90
2019-01-19T10:26:45.104Z,51.10
2019-01-19T10:30:51.577Z,49.60
2019-01-19T10:35:00.018Z,50.20
2019-01-19T10:39:08.949Z,51.90
2019-01-19T10:43:14.628Z,52.20
2019-01-19T10:47:20.388Z,52.10
2019-01-19T10:51:26.210Z,52.50
2019-01-19T10:55:31.975Z,51.90
2019-01-19T10:59:37.646Z,52.90
2019-01-19T11:03:43.404Z,51.30
2019-01-19T11:07:49.808Z,52.40
2019-01-19T11:11:55.566Z,51.30
2019-01-19T11:16:01.349Z,50.70
2019-01-19T11:20:11.822Z,51.90
2019-01-19T11:24:17.519Z,52.40
2019-01-19T11:28:23.226Z,52.80
2019-01-19T11:32:28.924Z,53.60
2019-01-19T11:36:34.667Z,54.20
2019-01-19T11:40:40.415Z,54.50
2019-01-19T11:44:46.111Z,55.10
2019-01-19T11:48:51.807Z,54.20
2019-01-19T11:52:57.481Z,54.00
2019-01-19T11:57:03.235Z,54.20
2019-01-19T12:01:08.963Z,54.60
2019-01-19T12:05:14.965Z,54.00
2019-01-19T12:09:21.691Z,53.80
2019-01-19T12:13:27.364Z,54.90
2019-01-19T12:17:33.118Z,54.50
2019-01-19T12:21:38.976Z,53.80
2019-01-19T12:25:44.750Z,51.80
2019-01-19T12:29:50.510Z,51.20
2019-01-19T12:33:56.179Z,51.50
2019-01-19T12:38:02.887Z,51.50
2019-01-19T12:42:08.593Z,50.90
2019-01-19T12:46:14.592Z,50.50
2019-01-19T12:50:24.152Z,49.80
2019-01-19T12:54:29.919Z,50.40
2019-01-19T12:58:35.653Z,49.30
2019-01-19T13:02:41.341Z,49.30
2019-01-19T13:06:47.537Z,49.20
2019-01-19T13:11:12.427Z,49.80
2019-01-19T13:15:28.553Z,49.70
2019-01-19T13:19:44.441Z,49.80
2019-01-19T13:24:18.670Z,48.40
2019-01-19T13:29:10.668Z,48.70
2019-01-19T13:33:29.377Z,50.00
2019-01-19T13:37:45.229Z,51.00
2019-01-19T13:42:25.299Z,51.70
2019-01-19T13:46:47.311Z,52.30
2019-01-19T13:51:06.358Z,52.10
2019-01-19T13:55:34.624Z,50.80
2019-01-19T13:59:53.598Z,49.20
2019-01-19T14:04:20.080Z,48.50
2019-01-19T14:08:49.196Z,49.10
2019-01-19T14:13:08.500Z,48.70
2019-01-19T14:17:43.867Z,49.20
2019-01-19T14:27:16.391Z,49.70
2019-01-19T14:31:47.357Z,49.00
2019-01-19T14:36:24.559Z,49.70
2019-01-19T14:40:54.041Z,49.30
2019-01-19T14:45:48.605Z,51.70
2019-01-19T14:50:16.594Z,52.00
2019-01-19T14:54:29.557Z,50.70
2019-01-19T14:58:51.266Z,50.10
2019-01-19T15:03:22.373Z,49.50
2019-01-19T15:07:41.602Z,50.40
2019-01-19T15:12:06.857Z,49.50
2019-01-19T15:16:48.833Z,48.90
2019-01-19T15:21:10.610Z,49.40
2019-01-19T15:25:35.610Z,47.80
2019-01-19T15:30:00.738Z,48.60
2019-01-19T15:34:28.646Z,48.90
2019-01-19T15:39:17.785Z,48.50
2019-01-19T15:43:47.028Z,48.60
2019-01-19T15:48:34.414Z,48.60
2019-01-19T15:53:00.300Z,48.60
2019-01-19T15:57:28.261Z,49.10
2019-01-19T16:02:20.333Z,48.70
2019-01-19T16:06:39.601Z,50.50
2019-01-19T16:11:04.585Z,50.10
2019-01-19T16:15:44.669Z,49.50
2019-01-19T16:20:09.305Z,49.60
2019-01-19T16:24:41.936Z,49.80
2019-01-19T16:29:12.330Z,50.40
2019-01-19T16:33:43.514Z,52.30
2019-01-19T16:38:31.275Z,52.00
2019-01-19T16:42:58.085Z,52.00
2019-01-19T16:47:35.206Z,52.70
2019-01-19T16:52:22.865Z,51.00
2019-01-19T16:56:58.413Z,50.30
2019-01-19T17:01:29.362Z,49.70
2019-01-19T17:05:45.204Z,49.80
2019-01-19T17:09:57.937Z,49.30
2019-01-19T17:14:19.918Z,49.10
2019-01-19T17:18:32.720Z,49.80
2019-01-19T17:23:00.732Z,50.40
2019-01-19T17:27:22.774Z,50.40
2019-01-19T17:31:35.998Z,50.70
2019-01-19T17:35:54.568Z,52.00
2019-01-19T17:40:52.613Z,51.60
2019-01-19T17:45:15.488Z,51.20
2019-01-19T17:49:40.654Z,51.40
2019-01-19T17:54:23.486Z,51.90
2019-01-19T17:59:04.974Z,52.10
2019-01-19T18:03:20.856Z,52.90
2019-01-19T18:07:40.007Z,51.70
2019-01-19T18:12:07.908Z,52.50
2019-01-19T18:16:37.168Z,52.30
2019-01-19T18:21:02.304Z,52.10
2019-01-19T18:25:36.322Z,54.60
2019-01-19T18:35:44.895Z,53.40
2019-01-19T18:40:49.399Z,55.40
2019-01-19T18:45:02.338Z,55.50
2019-01-19T18:49:46.888Z,54.70
2019-01-19T18:54:02.990Z,55.20
2019-01-19T18:58:18.987Z,55.40
2019-01-19T19:02:43.679Z,53.90
2019-01-19T19:07:29.966Z,56.30
2019-01-19T19:11:56.635Z,56.30
2019-01-19T19:16:25.676Z,57.00
2019-01-19T19:20:47.661Z,54.90
2019-01-19T19:25:09.591Z,54.80
2019-01-19T19:29:28.476Z,54.00
2019-01-19T19:34:04.070Z,54.30
2019-01-19T19:38:20.952Z,55.20
2019-01-19T19:43:05.178Z,55.10
2019-01-19T19:47:53.252Z,55.80
2019-01-19T19:52:02.341Z,56.20
2019-01-19T19:56:06.367Z,56.80
2019-01-19T20:00:12.860Z,57.10
2019-01-19T20:04:18.723Z,56.90
2019-01-19T20:08:24.494Z,56.40
2019-01-19T20:12:31.170Z,57.00
2019-01-19T20:16:37.042Z,56.90
2019-01-19T20:20:42.752Z,56.50
2019-01-19T20:24:48.523Z,55.30
2019-01-19T20:28:54.666Z,54.40
2019-01-19T20:33:00.437Z,54.90
2019-01-19T20:37:06.270Z,55.70
2019-01-19T20:41:11.970Z,55.90
2019-01-19T20:45:18.324Z,55.70
2019-01-19T20:49:24.030Z,56.50
2019-01-19T20:53:29.866Z,56.80
2019-01-19T20:57:35.700Z,56.20
2019-01-19T21:01:41.416Z,56.20
2019-01-19T21:05:47.123Z,56.80
2019-01-19T21:09:52.824Z,55.10
2019-01-19T21:13:58.547Z,56.80
2019-01-19T21:18:04.403Z,56.30
2019-01-19T21:22:11.224Z,55.20
2019-01-19T21:26:18.508Z,55.90
2019-01-19T21:30:24.356Z,55.80
2019-01-19T21:34:30.073Z,56.30
2019-01-19T21:38:35.766Z,55.10
2019-01-19T21:42:50.159Z,55.90
2019-01-19T21:46:55.895Z,56.60
2019-01-19T21:51:02.562Z,56.10
2019-01-19T21:55:10.373Z,56.40
2019-01-19T21:59:16.058Z,55.90
2019-01-19T22:03:21.766Z,56.00
2019-01-19T22:07:27.485Z,56.40
2019-01-19T22:11:33.181Z,55.40
2019-01-19T22:15:38.852Z,54.70
2019-01-19T22:19:44.554Z,54.40
2019-01-19T22:23:50.238Z,53.80
2019-01-19T22:27:56.036Z,54.30
2019-01-19T22:32:01.786Z,54.30
2019-01-19T22:36:07.561Z,54.60
2019-01-19T22:40:17.510Z,55.00
2019-01-19T22:44:23.145Z,54.80
2019-01-19T22:48:28.929Z,54.10
2019-01-19T22:52:49.791Z,54.30
2019-01-19T22:56:56.278Z,54.00
2019-01-19T23:01:07.140Z,53.70
2019-01-19T23:05:12.944Z,54.50
2019-01-19T23:09:18.886Z,54.70
2019-01-19T23:13:51.876Z,54.60
2019-01-19T23:17:57.579Z,55.10
2019-01-19T23:22:48.549Z,55.40
2019-01-19T23:26:55.527Z,55.20
2019-01-19T23:31:01.313Z,55.00
2019-01-19T23:35:08.937Z,54.50
2019-01-19T23:39:50.924Z,55.00
2019-01-19T23:43:56.615Z,53.70
2019-01-19T23:48:02.381Z,55.90
2019-01-19T23:52:08.129Z,54.70
2019-01-19T23:56:13.826Z,55.50
